Time;durP1;ratioP1;P1;durP2;ratioP2;P2;SDS_P1;SDS_P2;PMS_P1;PMS_P2;Temp;Humidity;BMP_temperature;BMP_pressure;BME280_temperature;BME280_humidity;BME280_pressure;Samples;Min_cycle;Max_cycle;Signal;HPM_P1;HPM_P2
2022/09/15 00:00:50;;;;;;;8.23;3.22;;;;;;;;;;5016182;28;20719;-83
2022/09/15 00:03:16;;;;;;;8.98;2.65;;;;;;;;;;5014183;28;20036;-82
2022/09/15 00:05:42;;;;;;;8.63;3.13;;;;;;;;;;5025495;28;20032;-82
2022/09/15 00:08:07;;;;;;;6.00;2.40;;;;;;;;;;5016656;28;20039;-82
2022/09/15 00:10:33;;;;;;;6.03;2.55;;;;;;;;;;5011301;28;20361;-82
2022/09/15 00:12:59;;;;;;;8.50;2.78;;;;;;;;;;5015701;28;20084;-82
2022/09/15 00:15:27;;;;;;;8.48;2.55;;;;;;;;;;5007576;28;20193;-83
2022/09/15 00:17:53;;;;;;;7.50;2.47;;;;;;;;;;5025055;28;20065;-82
2022/09/15 00:20:19;;;;;;;8.50;2.67;;;;;;;;;;5013315;28;20071;-83
2022/09/15 00:22:46;;;;;;;8.10;2.78;;;;;;;;;;5029593;28;20029;-82
2022/09/15 00:25:12;;;;;;;7.55;3.08;;;;;;;;;;5024079;28;20029;-82
2022/09/15 00:27:37;;;;;;;6.00;2.63;;;;;;;;;;5026842;28;20087;-82
2022/09/15 00:30:04;;;;;;;8.45;2.72;;;;;;;;;;5027296;28;20036;-82
2022/09/15 00:32:30;;;;;;;8.82;2.95;;;;;;;;;;5039660;28;20111;-81
2022/09/15 00:34:55;;;;;;;9.30;3.03;;;;;;;;;;5022402;28;20931;-82
2022/09/15 00:37:21;;;;;;;7.95;2.75;;;;;;;;;;5025328;28;20059;-82
2022/09/15 00:39:47;;;;;;;6.57;2.53;;;;;;;;;;5016886;28;20040;-82
2022/09/15 00:42:20;;;;;;;8.52;2.67;;;;;;;;;;5014980;28;20033;-82
2022/09/15 00:44:52;;;;;;;7.03;2.92;;;;;;;;;;5021501;28;20488;-84
2022/09/15 00:47:21;;;;;;;8.10;2.92;;;;;;;;;;5034513;28;20369;-84
2022/09/15 00:49:48;;;;;;;7.63;3.15;;;;;;;;;;5028071;28;20048;-84
2022/09/15 00:52:22;;;;;;;10.27;3.50;;;;;;;;;;5032998;28;20033;-84
2022/09/15 00:54:56;;;;;;;7.75;2.65;;;;;;;;;;5016247;28;20033;-84
2022/09/15 00:57:26;;;;;;;9.95;3.13;;;;;;;;;;5016598;28;20855;-84
2022/09/15 00:59:52;;;;;;;8.80;3.30;;;;;;;;;;5026561;28;20465;-84
2022/09/15 01:02:21;;;;;;;9.90;3.13;;;;;;;;;;5032509;28;20068;-84
2022/09/15 01:04:48;;;;;;;7.75;3.60;;;;;;;;;;5006986;28;20479;-84
2022/09/15 01:07:16;;;;;;;8.20;3.35;;;;;;;;;;5010481;28;20048;-85
2022/09/15 01:09:54;;;;;;;9.00;3.40;;;;;;;;;;5020230;28;20509;-84
2022/09/15 01:12:20;;;;;;;10.60;3.28;;;;;;;;;;5027595;28;20033;-84
2022/09/15 01:14:46;;;;;;;6.63;3.20;;;;;;;;;;5004729;28;20037;-84
2022/09/15 01:17:50;;;;;;;7.57;3.92;;;;;;;;;;5009633;28;20056;-84
2022/09/15 01:20:31;;;;;;;12.07;3.30;;;;;;;;;;4999129;28;20520;-85
2022/09/15 01:23:11;;;;;;;11.07;3.03;;;;;;;;;;5017665;28;20029;-84
2022/09/15 01:26:05;;;;;;;6.30;3.17;;;;;;;;;;5028478;28;20052;-83
2022/09/15 01:29:07;;;;;;;7.70;2.97;;;;;;;;;;5022207;28;20068;-84
2022/09/15 01:35:16;;;;;;;6.85;3.42;;;;;;;;;;5006828;28;20052;-84
2022/09/15 01:37:45;;;;;;;8.88;3.42;;;;;;;;;;5014473;28;20088;-85
2022/09/15 01:40:11;;;;;;;12.48;3.40;;;;;;;;;;5017243;28;20546;-84
2022/09/15 01:42:40;;;;;;;7.35;3.30;;;;;;;;;;5029407;28;20407;-84
2022/09/15 01:45:09;;;;;;;7.85;3.42;;;;;;;;;;5032939;28;20587;-84
2022/09/15 01:47:35;;;;;;;8.85;3.42;;;;;;;;;;5001692;28;20520;-84
2022/09/15 01:50:14;;;;;;;7.00;3.28;;;;;;;;;;5002796;28;20573;-85
2022/09/15 01:52:47;;;;;;;7.15;3.35;;;;;;;;;;5002500;28;20108;-84
2022/09/15 01:55:21;;;;;;;8.38;3.33;;;;;;;;;;5025520;28;20473;-84
2022/09/15 01:57:46;;;;;;;8.18;3.40;;;;;;;;;;5011134;28;20033;-84
2022/09/15 02:00:12;;;;;;;9.20;3.50;;;;;;;;;;5032597;28;20038;-84
2022/09/15 02:02:41;;;;;;;7.20;3.58;;;;;;;;;;5022134;28;20037;-84
2022/09/15 02:05:13;;;;;;;8.55;3.15;;;;;;;;;;5032890;28;20037;-83
2022/09/15 02:07:50;;;;;;;9.18;3.42;;;;;;;;;;5025025;28;20037;-84
2022/09/15 02:10:21;;;;;;;8.80;3.22;;;;;;;;;;5005269;28;20037;-84
2022/09/15 02:12:52;;;;;;;8.05;3.35;;;;;;;;;;5014294;28;20115;-83
2022/09/15 02:15:32;;;;;;;9.55;3.20;;;;;;;;;;5027789;28;20123;-85
2022/09/15 02:18:00;;;;;;;6.60;3.10;;;;;;;;;;5031668;28;20160;-84
2022/09/15 02:20:34;;;;;;;11.35;3.53;;;;;;;;;;5027675;28;20447;-84
2022/09/15 02:23:07;;;;;;;6.30;3.28;;;;;;;;;;5029794;28;20123;-84
2022/09/15 02:25:38;;;;;;;8.77;3.65;;;;;;;;;;5024859;28;20143;-83
2022/09/15 02:28:06;;;;;;;7.45;3.50;;;;;;;;;;5010842;28;20037;-83
2022/09/15 02:30:32;;;;;;;9.13;3.67;;;;;;;;;;5007251;28;20043;-84
2022/09/15 02:33:01;;;;;;;9.88;3.25;;;;;;;;;;5024109;28;20128;-84
2022/09/15 02:35:28;;;;;;;11.85;3.40;;;;;;;;;;5017621;28;20029;-83
2022/09/15 02:37:55;;;;;;;9.38;3.38;;;;;;;;;;5011299;28;20041;-84
2022/09/15 02:40:21;;;;;;;6.90;3.17;;;;;;;;;;5004068;28;20502;-84
2022/09/15 02:42:54;;;;;;;7.63;3.47;;;;;;;;;;5003100;28;20128;-84
2022/09/15 02:45:21;;;;;;;7.03;3.65;;;;;;;;;;5030047;28;20449;-83
2022/09/15 02:47:49;;;;;;;7.97;3.53;;;;;;;;;;5021311;28;20034;-84
2022/09/15 02:50:14;;;;;;;8.45;3.67;;;;;;;;;;5020160;28;20036;-83
2022/09/15 02:52:40;;;;;;;9.20;3.97;;;;;;;;;;5027740;28;20034;-83
2022/09/15 02:55:05;;;;;;;11.40;3.90;;;;;;;;;;5017128;28;20037;-83
2022/09/15 02:57:31;;;;;;;11.38;3.60;;;;;;;;;;5018403;28;20037;-83
2022/09/15 03:00:11;;;;;;;7.43;3.20;;;;;;;;;;4995460;28;20033;-84
2022/09/15 03:02:37;;;;;;;8.43;3.58;;;;;;;;;;5014848;28;20056;-83
2022/09/15 03:05:03;;;;;;;10.48;3.50;;;;;;;;;;5017054;28;20083;-83
2022/09/15 03:07:29;;;;;;;7.82;3.40;;;;;;;;;;5018273;28;20045;-83
2022/09/15 03:09:54;;;;;;;9.23;3.47;;;;;;;;;;5004020;28;20044;-85
2022/09/15 03:12:19;;;;;;;11.32;3.50;;;;;;;;;;5000735;28;20037;-84
2022/09/15 03:14:45;;;;;;;12.75;3.67;;;;;;;;;;5029846;28;20033;-84
2022/09/15 03:17:11;;;;;;;8.95;3.60;;;;;;;;;;5034006;28;20042;-84
2022/09/15 03:19:37;;;;;;;9.88;3.45;;;;;;;;;;5029706;28;20033;-84
2022/09/15 03:22:02;;;;;;;7.90;3.42;;;;;;;;;;5029830;28;20033;-83
2022/09/15 03:24:27;;;;;;;7.20;3.40;;;;;;;;;;5020446;28;20040;-84
2022/09/15 03:26:53;;;;;;;10.57;4.43;;;;;;;;;;5015934;28;20029;-82
2022/09/15 03:29:18;;;;;;;9.23;3.55;;;;;;;;;;5025016;28;20071;-82
2022/09/15 03:31:43;;;;;;;8.77;4.00;;;;;;;;;;5020558;28;20396;-82
2022/09/15 03:34:09;;;;;;;7.47;3.30;;;;;;;;;;5010508;28;20045;-82
2022/09/15 03:36:34;;;;;;;9.05;3.90;;;;;;;;;;4995382;28;20033;-82
2022/09/15 03:39:00;;;;;;;9.90;3.88;;;;;;;;;;5034878;28;20094;-82
2022/09/15 03:41:27;;;;;;;9.90;3.67;;;;;;;;;;5010296;28;20036;-82
2022/09/15 03:43:52;;;;;;;11.20;4.03;;;;;;;;;;5013064;28;20037;-82
2022/09/15 03:46:18;;;;;;;9.95;3.50;;;;;;;;;;5019181;28;20034;-82
2022/09/15 03:48:44;;;;;;;9.55;3.70;;;;;;;;;;5026390;28;20479;-82
2022/09/15 03:51:10;;;;;;;6.40;4.22;;;;;;;;;;5038746;28;20028;-82
2022/09/15 03:53:37;;;;;;;7.68;3.90;;;;;;;;;;5020738;28;20480;-81
2022/09/15 03:56:10;;;;;;;8.52;3.95;;;;;;;;;;5018091;28;20041;-81
2022/09/15 03:58:35;;;;;;;5.80;3.33;;;;;;;;;;5034645;28;20044;-80
2022/09/15 04:01:01;;;;;;;10.23;3.70;;;;;;;;;;5013768;28;20033;-81
2022/09/15 04:03:26;;;;;;;10.07;3.90;;;;;;;;;;5029998;28;20076;-81
2022/09/15 04:05:52;;;;;;;9.45;4.05;;;;;;;;;;5017288;28;20041;-81
2022/09/15 04:08:17;;;;;;;6.90;3.78;;;;;;;;;;5001392;28;20030;-80
2022/09/15 04:10:42;;;;;;;9.23;3.55;;;;;;;;;;5015669;28;20034;-80
2022/09/15 04:13:08;;;;;;;7.70;4.20;;;;;;;;;;5016610;28;20563;-80
2022/09/15 04:15:33;;;;;;;10.45;3.97;;;;;;;;;;5001503;28;20041;-80
2022/09/15 04:17:59;;;;;;;7.40;3.78;;;;;;;;;;4999563;28;20099;-81
2022/09/15 04:20:24;;;;;;;8.15;4.30;;;;;;;;;;5028933;28;20041;-81
2022/09/15 04:22:49;;;;;;;8.02;4.10;;;;;;;;;;5001000;28;20038;-81
2022/09/15 04:25:14;;;;;;;8.70;4.07;;;;;;;;;;5016249;28;20032;-81
2022/09/15 04:27:40;;;;;;;10.52;4.30;;;;;;;;;;5015041;28;20033;-81
2022/09/15 04:30:07;;;;;;;9.93;4.63;;;;;;;;;;5026168;28;20037;-81
2022/09/15 04:32:34;;;;;;;10.82;4.95;;;;;;;;;;5020181;28;20041;-80
2022/09/15 04:34:59;;;;;;;12.50;4.45;;;;;;;;;;5021152;28;20040;-80
2022/09/15 04:37:25;;;;;;;8.85;4.15;;;;;;;;;;5005691;28;20107;-80
2022/09/15 04:39:50;;;;;;;9.30;4.30;;;;;;;;;;5015329;28;20053;-81
2022/09/15 04:42:15;;;;;;;10.25;4.60;;;;;;;;;;5009181;28;20047;-81
2022/09/15 04:44:41;;;;;;;9.73;4.63;;;;;;;;;;5010325;28;20045;-80
2022/09/15 04:47:06;;;;;;;13.32;5.05;;;;;;;;;;5017289;28;20033;-81
2022/09/15 04:49:32;;;;;;;9.63;4.72;;;;;;;;;;5022299;28;20032;-78
2022/09/15 04:51:57;;;;;;;9.20;4.65;;;;;;;;;;5031580;28;20029;-79
2022/09/15 04:54:23;;;;;;;10.40;5.07;;;;;;;;;;5004643;28;20056;-79
2022/09/15 04:56:48;;;;;;;12.57;5.07;;;;;;;;;;5019534;28;20026;-79
2022/09/15 04:59:15;;;;;;;14.57;4.75;;;;;;;;;;5010270;28;20076;-79
2022/09/15 05:01:40;;;;;;;11.48;4.93;;;;;;;;;;5011027;28;20116;-80
2022/09/15 05:04:06;;;;;;;12.90;4.88;;;;;;;;;;5018799;28;20159;-79
2022/09/15 05:06:33;;;;;;;11.23;4.60;;;;;;;;;;5018327;28;20116;-79
2022/09/15 05:08:58;;;;;;;13.07;4.97;;;;;;;;;;5030289;28;20030;-78
2022/09/15 05:11:25;;;;;;;9.45;4.40;;;;;;;;;;5026940;28;20053;-79
2022/09/15 05:13:50;;;;;;;10.30;5.18;;;;;;;;;;5043608;28;20369;-79
2022/09/15 05:16:34;;;;;;;10.60;4.65;;;;;;;;;;5012574;28;20060;-79
2022/09/15 05:19:01;;;;;;;11.57;4.63;;;;;;;;;;5039273;28;20495;-79
2022/09/15 05:21:27;;;;;;;8.35;4.57;;;;;;;;;;5008351;28;20113;-79
2022/09/15 05:23:53;;;;;;;11.13;5.28;;;;;;;;;;5020701;28;20037;-79
2022/09/15 05:26:24;;;;;;;9.10;4.80;;;;;;;;;;5005804;28;20040;-78
2022/09/15 05:28:49;;;;;;;12.48;5.25;;;;;;;;;;5010967;28;20038;-79
2022/09/15 05:31:18;;;;;;;9.88;5.18;;;;;;;;;;5018214;28;20140;-78
2022/09/15 05:33:45;;;;;;;12.80;5.05;;;;;;;;;;5025895;28;20099;-80
2022/09/15 05:36:13;;;;;;;9.48;4.68;;;;;;;;;;5017762;28;20041;-79
2022/09/15 05:38:38;;;;;;;10.40;4.70;;;;;;;;;;5022308;28;20485;-78
2022/09/15 05:41:06;;;;;;;8.40;4.80;;;;;;;;;;5026121;28;20056;-79
2022/09/15 05:43:32;;;;;;;9.27;4.80;;;;;;;;;;5020699;28;20411;-79
2022/09/15 05:45:58;;;;;;;16.50;5.45;;;;;;;;;;5033890;28;20033;-79
2022/09/15 05:48:24;;;;;;;9.95;4.82;;;;;;;;;;5025309;28;20041;-79
2022/09/15 05:50:51;;;;;;;13.73;5.72;;;;;;;;;;5031798;28;20121;-79
2022/09/15 05:53:16;;;;;;;11.90;5.00;;;;;;;;;;5001753;28;20041;-79
2022/09/15 05:55:42;;;;;;;11.90;4.80;;;;;;;;;;5017497;28;20040;-79
2022/09/15 05:58:07;;;;;;;9.70;4.85;;;;;;;;;;5005293;28;20758;-79
2022/09/15 06:00:33;;;;;;;12.90;4.55;;;;;;;;;;5009428;28;20427;-79
2022/09/15 06:02:58;;;;;;;8.93;4.63;;;;;;;;;;5010046;28;20106;-79
2022/09/15 06:05:23;;;;;;;8.73;4.70;;;;;;;;;;5017928;28;20049;-79
2022/09/15 06:07:52;;;;;;;9.35;4.20;;;;;;;;;;5024010;28;20254;-79
2022/09/15 06:10:18;;;;;;;11.20;4.28;;;;;;;;;;5019825;28;20068;-80
2022/09/15 06:12:43;;;;;;;10.10;4.15;;;;;;;;;;5027081;28;20053;-79
2022/09/15 06:15:09;;;;;;;7.97;3.70;;;;;;;;;;5004419;28;20045;-79
2022/09/15 06:17:35;;;;;;;8.68;3.30;;;;;;;;;;5001002;28;20128;-79
2022/09/15 06:20:04;;;;;;;8.45;3.20;;;;;;;;;;5018759;28;20128;-78
2022/09/15 06:22:30;;;;;;;8.45;2.80;;;;;;;;;;5009600;28;20518;-81
2022/09/15 06:24:55;;;;;;;9.75;2.65;;;;;;;;;;5020003;28;20041;-78
2022/09/15 06:27:21;;;;;;;8.05;2.58;;;;;;;;;;5014619;28;20524;-80
2022/09/15 06:29:46;;;;;;;5.65;2.67;;;;;;;;;;5018200;28;20044;-79
2022/09/15 06:32:12;;;;;;;8.77;2.42;;;;;;;;;;5029025;28;20029;-79
2022/09/15 06:34:40;;;;;;;10.07;2.58;;;;;;;;;;5024001;28;20395;-79
2022/09/15 06:37:05;;;;;;;;;;;;;;;;;;5017556;28;20736;-80
2022/09/15 06:39:31;;;;;;;7.87;1.97;;;;;;;;;;5004259;28;19917;-80
2022/09/15 06:41:57;;;;;;;5.85;2.30;;;;;;;;;;5041540;28;20280;-79
2022/09/15 06:44:22;;;;;;;7.78;2.40;;;;;;;;;;5002893;28;20029;-79
2022/09/15 06:46:48;;;;;;;6.32;1.90;;;;;;;;;;5023285;28;20091;-79
2022/09/15 06:49:17;;;;;;;7.88;2.60;;;;;;;;;;5009211;28;20032;-80
2022/09/15 06:51:46;;;;;;;8.18;2.25;;;;;;;;;;5022407;28;20400;-79
2022/09/15 06:54:13;;;;;;;7.00;2.10;;;;;;;;;;5008230;28;20033;-80
2022/09/15 06:56:41;;;;;;;6.97;2.20;;;;;;;;;;5016590;28;20056;-79
2022/09/15 06:59:06;;;;;;;6.10;2.38;;;;;;;;;;5017145;28;20183;-78
2022/09/15 07:01:32;;;;;;;5.20;1.77;;;;;;;;;;5007747;28;20120;-80
2022/09/15 07:04:00;;;;;;;10.57;2.10;;;;;;;;;;5010572;28;20493;-79
2022/09/15 07:06:30;;;;;;;4.88;1.77;;;;;;;;;;5008113;28;20057;-78
2022/09/15 07:08:57;;;;;;;5.03;2.08;;;;;;;;;;5010640;28;20419;-78
2022/09/15 07:11:23;;;;;;;5.63;2.13;;;;;;;;;;5014558;28;20484;-78
2022/09/15 07:13:49;;;;;;;6.43;2.10;;;;;;;;;;5015182;28;20385;-79
2022/09/15 07:16:16;;;;;;;6.75;2.05;;;;;;;;;;5013584;28;20053;-80
2022/09/15 07:18:42;;;;;;;6.03;1.63;;;;;;;;;;5003608;28;20069;-80
2022/09/15 07:21:10;;;;;;;6.53;2.20;;;;;;;;;;5004557;28;20033;-79
2022/09/15 07:23:36;;;;;;;7.95;1.90;;;;;;;;;;5009290;28;20791;-79
2022/09/15 07:26:12;;;;;;;6.50;1.90;;;;;;;;;;5024846;28;20056;-81
2022/09/15 07:28:39;;;;;;;7.20;1.90;;;;;;;;;;5023608;28;20826;-80
2022/09/15 07:31:06;;;;;;;3.50;1.67;;;;;;;;;;5017115;28;20628;-79
2022/09/15 07:33:33;;;;;;;5.35;1.98;;;;;;;;;;4992502;28;20044;-78
2022/09/15 07:36:00;;;;;;;6.70;1.95;;;;;;;;;;5016886;28;20068;-78
2022/09/15 07:38:28;;;;;;;6.75;1.95;;;;;;;;;;5015971;28;20074;-78
2022/09/15 07:40:53;;;;;;;6.32;1.83;;;;;;;;;;5005420;28;20064;-78
2022/09/15 07:43:19;;;;;;;5.80;1.50;;;;;;;;;;5025222;28;20571;-80
2022/09/15 07:45:45;;;;;;;5.22;2.22;;;;;;;;;;5016384;28;20116;-79
2022/09/15 07:48:10;;;;;;;8.32;1.70;;;;;;;;;;5015177;28;20441;-79
2022/09/15 07:50:36;;;;;;;6.80;1.63;;;;;;;;;;5024312;28;20436;-79
2022/09/15 07:53:02;;;;;;;6.28;1.90;;;;;;;;;;5022931;28;20029;-79
2022/09/15 07:55:29;;;;;;;6.93;2.00;;;;;;;;;;5025913;28;20057;-79
2022/09/15 07:58:01;;;;;;;8.80;1.80;;;;;;;;;;5017712;28;20033;-78
2022/09/15 08:00:27;;;;;;;7.20;1.95;;;;;;;;;;5022122;28;20041;-79
2022/09/15 08:02:52;;;;;;;6.93;2.10;;;;;;;;;;5016683;28;20388;-79
2022/09/15 08:05:18;;;;;;;4.53;1.50;;;;;;;;;;5006887;28;20037;-79
2022/09/15 08:07:43;;;;;;;7.03;2.17;;;;;;;;;;5018695;28;20041;-78
2022/09/15 08:10:09;;;;;;;6.70;1.80;;;;;;;;;;5001017;28;20337;-78
2022/09/15 08:12:35;;;;;;;8.80;1.80;;;;;;;;;;5013082;28;20076;-79
2022/09/15 08:15:00;;;;;;;7.95;1.80;;;;;;;;;;5024516;28;20042;-78
2022/09/15 08:17:25;;;;;;;4.22;1.60;;;;;;;;;;5002259;28;20476;-77
2022/09/15 08:19:51;;;;;;;4.68;1.45;;;;;;;;;;5000708;28;20140;-77
2022/09/15 08:22:16;;;;;;;4.50;1.35;;;;;;;;;;4999418;28;20038;-78
2022/09/15 08:24:42;;;;;;;8.05;1.55;;;;;;;;;;4991395;28;20036;-78
2022/09/15 08:27:07;;;;;;;3.83;1.40;;;;;;;;;;4996363;28;20136;-77
2022/09/15 08:29:33;;;;;;;4.90;1.42;;;;;;;;;;4985018;28;20049;-76
2022/09/15 08:31:58;;;;;;;4.55;1.25;;;;;;;;;;4997542;28;20499;-77
2022/09/15 08:34:27;;;;;;;7.05;1.40;;;;;;;;;;5003468;28;20088;-77
2022/09/15 08:36:52;;;;;;;4.63;1.23;;;;;;;;;;4999615;28;20497;-78
2022/09/15 08:39:17;;;;;;;4.82;1.45;;;;;;;;;;4991765;28;20038;-78
2022/09/15 08:41:47;;;;;;;5.47;1.45;;;;;;;;;;4999437;28;20044;-79
2022/09/15 08:44:39;;;;;;;5.65;1.23;;;;;;;;;;5011938;28;20045;-79
2022/09/15 08:47:15;;;;;;;4.15;1.13;;;;;;;;;;5004775;28;20041;-79
2022/09/15 08:49:43;;;;;;;2.70;0.95;;;;;;;;;;5007407;28;20025;-80
2022/09/15 08:52:48;;;;;;;7.13;1.40;;;;;;;;;;5006943;28;20033;-78
2022/09/15 08:55:21;;;;;;;5.47;1.40;;;;;;;;;;5020579;28;20088;-78
2022/09/15 08:57:46;;;;;;;4.43;1.33;;;;;;;;;;5008782;28;20030;-78
2022/09/15 09:00:18;;;;;;;7.28;1.20;;;;;;;;;;4982615;28;20040;-80
2022/09/15 09:03:27;;;;;;;5.78;1.23;;;;;;;;;;4990475;28;20037;-79
2022/09/15 09:06:26;;;;;;;6.18;1.50;;;;;;;;;;4947263;28;20038;-80
2022/09/15 09:09:13;;;;;;;5.22;1.38;;;;;;;;;;4943285;28;20043;-78
2022/09/15 09:11:44;;;;;;;3.53;1.10;;;;;;;;;;4941059;28;20039;-78
2022/09/15 09:14:25;;;;;;;3.35;1.10;;;;;;;;;;4949246;28;20043;-79
2022/09/15 09:17:12;;;;;;;7.63;1.20;;;;;;;;;;4920518;28;20058;-79
2022/09/15 09:20:22;;;;;;;7.20;1.35;;;;;;;;;;4948765;28;20042;-79
2022/09/15 09:22:49;;;;;;;5.40;1.52;;;;;;;;;;4956122;28;20034;-79
2022/09/15 09:25:17;;;;;;;4.40;1.43;;;;;;;;;;4942542;28;20132;-78
2022/09/15 09:27:43;;;;;;;4.88;1.40;;;;;;;;;;4948593;28;20287;-79
2022/09/15 09:30:11;;;;;;;4.55;1.30;;;;;;;;;;4965421;28;20734;-78
2022/09/15 09:32:44;;;;;;;4.40;1.25;;;;;;;;;;4956932;28;20070;-79
2022/09/15 09:35:16;;;;;;;5.28;1.13;;;;;;;;;;4962269;28;20050;-78
2022/09/15 09:37:41;;;;;;;6.78;1.40;;;;;;;;;;4955766;28;20087;-78
2022/09/15 09:40:12;;;;;;;6.72;1.67;;;;;;;;;;4925492;28;20073;-79
2022/09/15 09:42:38;;;;;;;4.68;1.20;;;;;;;;;;4964898;28;20029;-78
2022/09/15 09:45:05;;;;;;;5.68;1.42;;;;;;;;;;5011932;28;20030;-81
2022/09/15 09:47:32;;;;;;;5.88;1.30;;;;;;;;;;5005726;28;20065;-78
2022/09/15 09:49:58;;;;;;;7.50;1.15;;;;;;;;;;4999124;28;20645;-78
2022/09/15 09:52:38;;;;;;;7.97;1.35;;;;;;;;;;4983655;28;20044;-78
2022/09/15 09:55:23;;;;;;;3.58;1.00;;;;;;;;;;5002715;28;20481;-79
2022/09/15 09:57:49;;;;;;;4.93;0.80;;;;;;;;;;4998820;28;20149;-79
2022/09/15 10:00:38;;;;;;;5.40;1.20;;;;;;;;;;5005636;28;20121;-79
2022/09/15 10:03:15;;;;;;;4.10;0.93;;;;;;;;;;5001565;28;20038;-80
2022/09/15 10:05:41;;;;;;;5.47;1.30;;;;;;;;;;5006706;28;20045;-80
2022/09/15 10:08:15;;;;;;;3.15;0.82;;;;;;;;;;4979772;28;20053;-79
2022/09/15 10:10:48;;;;;;;3.58;0.90;;;;;;;;;;4997550;28;20029;-78
2022/09/15 10:13:14;;;;;;;3.67;0.82;;;;;;;;;;4997607;28;20045;-79
2022/09/15 10:15:39;;;;;;;3.95;1.25;;;;;;;;;;5015967;28;20038;-79
2022/09/15 10:18:06;;;;;;;4.78;0.95;;;;;;;;;;4999228;28;20045;-78
2022/09/15 10:20:38;;;;;;;3.33;0.98;;;;;;;;;;5004091;28;20087;-79
2022/09/15 10:23:23;;;;;;;3.33;0.82;;;;;;;;;;5024194;28;20029;-80
2022/09/15 10:25:48;;;;;;;4.20;0.80;;;;;;;;;;5009713;28;20040;-79
2022/09/15 10:28:16;;;;;;;3.78;0.80;;;;;;;;;;4999844;28;20033;-80
2022/09/15 10:31:09;;;;;;;3.00;0.70;;;;;;;;;;5051459;28;20501;-80
2022/09/15 10:33:40;;;;;;;3.83;0.98;;;;;;;;;;5016391;28;20111;-80
2022/09/15 10:36:16;;;;;;;3.22;0.70;;;;;;;;;;5017512;28;20045;-79
2022/09/15 10:38:51;;;;;;;3.33;0.70;;;;;;;;;;5035077;28;20095;-79
2022/09/15 10:41:22;;;;;;;4.35;1.05;;;;;;;;;;5024147;28;20119;-79
2022/09/15 10:44:02;;;;;;;3.72;0.70;;;;;;;;;;5010351;28;20496;-79
2022/09/15 10:46:41;;;;;;;2.40;0.43;;;;;;;;;;5018309;28;20156;-79
2022/09/15 10:49:28;;;;;;;2.90;0.50;;;;;;;;;;5037073;28;20131;-79
2022/09/15 10:52:11;;;;;;;2.70;0.70;;;;;;;;;;5016924;28;20047;-79
2022/09/15 10:55:10;;;;;;;4.30;0.70;;;;;;;;;;5037885;28;20155;-79
2022/09/15 10:57:47;;;;;;;3.72;0.40;;;;;;;;;;5028863;28;20040;-79
2022/09/15 11:00:22;;;;;;;6.35;0.70;;;;;;;;;;5049898;28;20040;-79
2022/09/15 11:03:10;;;;;;;3.67;0.52;;;;;;;;;;5024947;28;20392;-81
2022/09/15 11:05:48;;;;;;;5.13;0.60;;;;;;;;;;5021628;28;20507;-80
2022/09/15 11:08:38;;;;;;;3.95;0.70;;;;;;;;;;5027044;28;20086;-80
2022/09/15 11:11:40;;;;;;;2.50;0.60;;;;;;;;;;5024502;28;20040;-78
2022/09/15 11:14:37;;;;;;;1.70;0.40;;;;;;;;;;5017333;28;20076;-79
2022/09/15 11:17:22;;;;;;;2.80;0.55;;;;;;;;;;5025974;28;20036;-80
2022/09/15 11:20:12;;;;;;;3.58;0.45;;;;;;;;;;5000156;28;20049;-78
2022/09/15 11:22:49;;;;;;;3.28;0.40;;;;;;;;;;5027955;28;20555;-78
2022/09/15 11:25:18;;;;;;;4.00;0.63;;;;;;;;;;5010505;28;20725;-77
2022/09/15 11:27:48;;;;;;;6.03;0.90;;;;;;;;;;5003628;28;20038;-77
2022/09/15 11:30:17;;;;;;;8.52;0.80;;;;;;;;;;5012311;28;20075;-77
2022/09/15 11:33:22;;;;;;;2.75;0.68;;;;;;;;;;5026262;28;20037;-78
2022/09/15 11:36:07;;;;;;;2.13;0.50;;;;;;;;;;5030029;28;20036;-77
2022/09/15 11:38:41;;;;;;;3.40;0.65;;;;;;;;;;4997895;28;20462;-77
2022/09/15 11:41:39;;;;;;;2.85;0.45;;;;;;;;;;4995467;28;20048;-77
2022/09/15 11:44:21;;;;;;;3.03;0.60;;;;;;;;;;5032532;28;20047;-78
2022/09/15 11:47:17;;;;;;;2.28;0.50;;;;;;;;;;5024497;28;20040;-77
2022/09/15 11:49:51;;;;;;;3.13;0.40;;;;;;;;;;5027852;28;20433;-78
2022/09/15 11:52:21;;;;;;;3.55;0.80;;;;;;;;;;5012176;28;20432;-78
2022/09/15 11:55:24;;;;;;;4.63;0.70;;;;;;;;;;5014528;28;20096;-77
2022/09/15 11:58:18;;;;;;;2.75;0.65;;;;;;;;;;5010255;28;20045;-78
2022/09/15 12:00:50;;;;;;;3.40;0.75;;;;;;;;;;5002813;28;20582;-77
2022/09/15 12:03:23;;;;;;;7.30;0.77;;;;;;;;;;5009241;28;20101;-78
2022/09/15 12:05:57;;;;;;;4.15;0.85;;;;;;;;;;5007547;28;20065;-77
2022/09/15 12:08:31;;;;;;;4.40;0.57;;;;;;;;;;4995227;28;20076;-78
2022/09/15 12:10:59;;;;;;;1.88;0.43;;;;;;;;;;4993172;28;20026;-78
2022/09/15 12:13:25;;;;;;;2.63;0.70;;;;;;;;;;4999275;28;20037;-77
2022/09/15 12:15:51;;;;;;;4.95;0.60;;;;;;;;;;4992581;28;20038;-78
2022/09/15 12:18:25;;;;;;;3.38;0.57;;;;;;;;;;5020087;28;20048;-78
2022/09/15 12:21:22;;;;;;;5.60;0.80;;;;;;;;;;5038986;28;20041;-78
2022/09/15 12:24:08;;;;;;;2.40;0.70;;;;;;;;;;4986150;28;20481;-79
2022/09/15 12:26:33;;;;;;;3.50;0.70;;;;;;;;;;5001069;28;20484;-78
2022/09/15 12:29:03;;;;;;;5.80;0.77;;;;;;;;;;5000672;28;20064;-77
2022/09/15 12:31:33;;;;;;;2.55;0.52;;;;;;;;;;5023056;28;20065;-78
2022/09/15 12:34:23;;;;;;;3.92;0.70;;;;;;;;;;5024829;28;20060;-78
2022/09/15 12:36:52;;;;;;;3.38;0.77;;;;;;;;;;5031859;28;20041;-78
2022/09/15 12:39:23;;;;;;;51.95;3.30;;;;;;;;;;5022663;28;20471;-78
2022/09/15 12:41:50;;;;;;;5.10;0.70;;;;;;;;;;5032852;28;20037;-77
2022/09/15 12:44:23;;;;;;;4.65;0.70;;;;;;;;;;5023644;28;20045;-78
2022/09/15 12:46:50;;;;;;;1.73;0.50;;;;;;;;;;5023413;28;20060;-79
2022/09/15 12:49:26;;;;;;;3.92;0.50;;;;;;;;;;5007671;28;20373;-78
2022/09/15 12:51:51;;;;;;;4.20;1.08;;;;;;;;;;5017455;28;20518;-78
2022/09/15 12:54:27;;;;;;;4.45;1.00;;;;;;;;;;5015826;28;20084;-77
2022/09/15 12:56:53;;;;;;;6.28;0.73;;;;;;;;;;5006037;28;20132;-78
2022/09/15 12:59:24;;;;;;;3.92;0.60;;;;;;;;;;5017048;28;20077;-78
2022/09/15 13:01:50;;;;;;;2.28;0.47;;;;;;;;;;5001257;28;20118;-78
2022/09/15 13:04:54;;;;;;;3.60;0.60;;;;;;;;;;5019442;28;20037;-78
2022/09/15 13:07:19;;;;;;;2.47;0.70;;;;;;;;;;4945907;28;20495;-78
2022/09/15 13:09:55;;;;;;;10.05;0.95;;;;;;;;;;4963665;28;20039;-78
2022/09/15 13:12:20;;;;;;;4.20;0.95;;;;;;;;;;4961918;28;20049;-78
2022/09/15 13:14:48;;;;;;;7.05;0.93;;;;;;;;;;4950883;28;20450;-78
2022/09/15 13:17:23;;;;;;;3.58;0.60;;;;;;;;;;4963831;28;20061;-78
2022/09/15 13:19:52;;;;;;;5.63;0.70;;;;;;;;;;4959411;28;20042;-78
2022/09/15 13:22:30;;;;;;;5.55;0.80;;;;;;;;;;4970222;28;20117;-78
2022/09/15 13:24:58;;;;;;;3.85;0.60;;;;;;;;;;4947660;28;20042;-78
2022/09/15 13:27:41;;;;;;;3.38;0.65;;;;;;;;;;4962836;28;20043;-78
2022/09/15 13:30:23;;;;;;;5.63;0.90;;;;;;;;;;4964126;28;20043;-78
2022/09/15 13:32:54;;;;;;;4.32;0.75;;;;;;;;;;4963301;28;20883;-79
2022/09/15 13:35:48;;;;;;;3.35;0.77;;;;;;;;;;4947734;28;20507;-78
2022/09/15 13:38:13;;;;;;;6.07;0.70;;;;;;;;;;5000847;28;20034;-78
2022/09/15 13:40:51;;;;;;;3.35;0.50;;;;;;;;;;5035053;28;20045;-78
2022/09/15 13:43:35;;;;;;;6.95;0.85;;;;;;;;;;5024245;28;20498;-78
2022/09/15 13:46:11;;;;;;;3.92;0.70;;;;;;;;;;5034795;28;20029;-78
2022/09/15 13:48:48;;;;;;;4.25;0.57;;;;;;;;;;5038198;28;20125;-78
2022/09/15 13:51:20;;;;;;;;;;;;;;;;;;5037218;28;20037;-79
2022/09/15 13:54:14;;;;;;;5.72;0.70;;;;;;;;;;5028368;28;20723;-78
2022/09/15 13:56:40;;;;;;;2.22;0.50;;;;;;;;;;5030159;28;20145;-78
2022/09/15 13:59:10;;;;;;;3.60;0.50;;;;;;;;;;5004188;28;20455;-78
2022/09/15 14:01:39;;;;;;;2.75;0.70;;;;;;;;;;5009337;28;20396;-78
2022/09/15 14:04:18;;;;;;;2.95;0.52;;;;;;;;;;5027343;28;20041;-78
2022/09/15 14:06:46;;;;;;;3.47;0.60;;;;;;;;;;5036135;28;20025;-78
2022/09/15 14:09:17;;;;;;;3.38;0.45;;;;;;;;;;5018166;28;21064;-78
2022/09/15 14:11:46;;;;;;;7.35;0.70;;;;;;;;;;5027431;28;20041;-78
2022/09/15 14:14:42;;;;;;;3.72;0.57;;;;;;;;;;5018486;28;20037;-79
2022/09/15 14:17:22;;;;;;;2.55;0.50;;;;;;;;;;4988429;28;20775;-77
2022/09/15 14:19:50;;;;;;;1.90;0.40;;;;;;;;;;5016928;28;20491;-78
2022/09/15 14:22:34;;;;;;;4.30;0.98;;;;;;;;;;5019929;28;20029;-78
2022/09/15 14:25:05;;;;;;;5.22;0.60;;;;;;;;;;5032474;28;20034;-78
2022/09/15 14:27:33;;;;;;;3.33;0.77;;;;;;;;;;5023262;28;20057;-77
2022/09/15 14:30:04;;;;;;;1.95;0.50;;;;;;;;;;5016388;28;20152;-78
2022/09/15 14:32:36;;;;;;;3.42;0.68;;;;;;;;;;5027286;28;20558;-78
2022/09/15 14:35:05;;;;;;;2.00;0.40;;;;;;;;;;5006525;28;20041;-78
2022/09/15 14:37:30;;;;;;;2.53;0.50;;;;;;;;;;5017177;28;20076;-77
2022/09/15 14:39:58;;;;;;;3.38;0.65;;;;;;;;;;5017818;28;20447;-78
2022/09/15 14:42:31;;;;;;;3.22;0.50;;;;;;;;;;5019709;28;20104;-78
2022/09/15 14:45:15;;;;;;;2.90;0.70;;;;;;;;;;5028338;28;20059;-78
2022/09/15 14:47:42;;;;;;;1.88;0.50;;;;;;;;;;5019627;28;20623;-79
2022/09/15 14:50:15;;;;;;;2.30;0.52;;;;;;;;;;5034799;28;20030;-78
2022/09/15 14:52:46;;;;;;;1.73;0.50;;;;;;;;;;5015737;28;20037;-79
2022/09/15 14:55:19;;;;;;;3.28;0.57;;;;;;;;;;5018791;28;20041;-78
2022/09/15 14:57:53;;;;;;;2.50;0.40;;;;;;;;;;5007836;28;20053;-79
2022/09/15 15:00:21;;;;;;;2.88;0.40;;;;;;;;;;5018204;28;20485;-78
2022/09/15 15:03:28;;;;;;;5.32;0.85;;;;;;;;;;5018743;28;20030;-79
2022/09/15 15:05:58;;;;;;;;;;;;;;;;;;5026392;28;20124;-78
2022/09/15 15:08:38;;;;;;;2.72;0.50;;;;;;;;;;5044702;28;20668;-79
2022/09/15 15:11:06;;;;;;;2.38;0.50;;;;;;;;;;5016966;28;20372;-79